createdAt,value
2023-10-26T00:00:37.780Z,99648.50
2023-10-26T00:03:04.533Z,99649.38
2023-10-26T00:05:31.104Z,99654.66
2023-10-26T00:07:57.824Z,99655.47
2023-10-26T00:10:24.299Z,99659.88
2023-10-26T00:12:50.800Z,99657.22
2023-10-26T00:15:17.279Z,99659.84
2023-10-26T00:17:43.973Z,99663.34
2023-10-26T00:20:10.970Z,99663.34
2023-10-26T00:22:37.486Z,99672.09
2023-10-26T00:25:04.264Z,99675.59
2023-10-26T00:27:30.677Z,99664.22
2023-10-26T00:29:57.112Z,99668.56
2023-10-26T00:32:23.610Z,99667.66
2023-10-26T00:34:51.823Z,99670.22
2023-10-26T00:37:18.321Z,99669.38
2023-10-26T00:39:45.224Z,99673.75
2023-10-26T00:42:13.058Z,99672.84
2023-10-26T00:44:39.598Z,99672.84
2023-10-26T00:47:06.672Z,99673.75
2023-10-26T00:49:33.720Z,99679.88
2023-10-26T00:52:02.513Z,99682.50
2023-10-26T00:54:29.640Z,99680.78
2023-10-26T00:56:56.951Z,99678.16
2023-10-26T00:59:27.757Z,99674.69
2023-10-26T01:01:56.377Z,99674.72
2023-10-26T01:04:22.891Z,99681.75
2023-10-26T01:06:49.346Z,99687.91
2023-10-26T01:09:16.073Z,99687.03
2023-10-26T01:11:43.695Z,99697.59
2023-10-26T01:14:10.392Z,99698.47
2023-10-26T01:16:37.624Z,99695.00
2023-10-26T01:19:05.319Z,99702.03
2023-10-26T01:21:32.618Z,99703.78
2023-10-26T01:23:59.038Z,99702.06
2023-10-26T01:26:25.570Z,99704.69
2023-10-26T01:28:51.979Z,99711.72
2023-10-26T01:31:19.311Z,99712.59
2023-10-26T01:33:46.620Z,99716.09
2023-10-26T01:36:13.139Z,99714.34
2023-10-26T01:38:39.678Z,99721.34
2023-10-26T01:41:06.426Z,99718.72
2023-10-26T01:43:33.050Z,99711.69
2023-10-26T01:45:59.515Z,99708.19
2023-10-26T01:48:27.155Z,99707.34
2023-10-26T01:50:54.505Z,99712.56
2023-10-26T01:53:24.760Z,99715.22
2023-10-26T01:55:51.299Z,99715.22
2023-10-26T01:58:17.744Z,99719.63
2023-10-26T02:00:44.500Z,99717.84
2023-10-26T02:03:11.091Z,99719.63
2023-10-26T02:05:37.768Z,99720.53
2023-10-26T02:08:04.376Z,99713.50
2023-10-26T02:10:30.765Z,99710.88
2023-10-26T02:12:57.960Z,99701.22
2023-10-26T02:15:24.739Z,99705.56
2023-10-26T02:17:51.498Z,99702.97
2023-10-26T02:20:18.361Z,99696.88
2023-10-26T02:22:44.863Z,99695.97
2023-10-26T02:25:11.381Z,99685.53
2023-10-26T02:27:37.791Z,99696.88
2023-10-26T02:30:04.797Z,99695.13
2023-10-26T02:32:31.419Z,99694.25
2023-10-26T02:34:57.867Z,99695.13
2023-10-26T02:37:24.406Z,99693.41
2023-10-26T02:39:50.818Z,99677.69
2023-10-26T02:42:17.288Z,99684.72
2023-10-26T02:44:45.461Z,99682.09
2023-10-26T02:47:12.063Z,99685.59
2023-10-26T02:49:38.620Z,99679.44
2023-10-26T02:52:05.457Z,99688.22
2023-10-26T02:54:32.007Z,99690.03
2023-10-26T02:56:58.605Z,99697.03
2023-10-26T02:59:25.070Z,99702.31
2023-10-26T03:01:51.659Z,99701.50
2023-10-26T03:04:18.189Z,99686.63
2023-10-26T03:06:44.703Z,99697.09
2023-10-26T03:09:11.305Z,99685.72
2023-10-26T03:11:37.977Z,99689.22
2023-10-26T03:14:05.413Z,99680.47
2023-10-26T03:16:33.549Z,99673.44
2023-10-26T03:19:00.062Z,99664.66
2023-10-26T03:21:26.568Z,99667.19
2023-10-26T03:23:55.844Z,99662.75
2023-10-26T03:26:23.212Z,99654.09
2023-10-26T03:28:50.806Z,99666.28
2023-10-26T03:31:17.827Z,99673.31
2023-10-26T03:33:44.348Z,99665.47
2023-10-26T03:36:23.405Z,99670.81
2023-10-26T03:38:51.457Z,99669.06
2023-10-26T03:41:21.209Z,99666.41
2023-10-26T03:43:48.014Z,99657.63
2023-10-26T03:46:15.655Z,99657.63
2023-10-26T03:48:42.203Z,99666.31
2023-10-26T03:51:10.268Z,99665.41
2023-10-26T03:53:36.767Z,99670.63
2023-10-26T03:56:03.557Z,99661.84
2023-10-26T03:58:30.101Z,99673.22
2023-10-26T04:00:58.006Z,99671.53
2023-10-26T04:03:25.320Z,99671.63
2023-10-26T04:05:51.829Z,99666.38
2023-10-26T04:08:18.302Z,99665.47
2023-10-26T04:10:45.160Z,99667.22
2023-10-26T04:13:11.640Z,99669.00
2023-10-26T04:15:38.047Z,99674.31
2023-10-26T04:18:06.942Z,99676.09
2023-10-26T04:20:33.509Z,99672.63
2023-10-26T04:22:59.900Z,99674.41
2023-10-26T04:25:42.170Z,99676.97
2023-10-26T04:28:17.031Z,99672.59
2023-10-26T04:30:50.233Z,99673.41
2023-10-26T04:33:20.331Z,99662.88
2023-10-26T04:35:48.449Z,99668.09
2023-10-26T04:38:15.478Z,99663.75
2023-10-26T04:40:43.643Z,99653.28
2023-10-26T04:43:10.440Z,99658.50
2023-10-26T04:45:37.046Z,99659.41
2023-10-26T04:48:04.183Z,99654.19
2023-10-26T04:50:33.618Z,99652.47
2023-10-26T04:53:00.661Z,99648.03
2023-10-26T04:55:35.128Z,99648.03
2023-10-26T04:58:02.798Z,99644.56
2023-10-26T05:00:32.267Z,99648.94
2023-10-26T05:02:58.994Z,99652.47
2023-10-26T05:05:25.720Z,99647.19
2023-10-26T05:07:52.215Z,99637.50
2023-10-26T05:10:18.892Z,99644.53
2023-10-26T05:12:45.375Z,99651.56
2023-10-26T05:15:11.921Z,99655.88
2023-10-26T05:17:39.244Z,99650.59
2023-10-26T05:20:06.812Z,99647.97
2023-10-26T05:22:33.844Z,99647.13
2023-10-26T05:25:06.464Z,99646.25
2023-10-26T05:27:36.458Z,99648.88
2023-10-26T05:30:04.007Z,99641.91
2023-10-26T05:32:30.563Z,99641.03
2023-10-26T05:34:57.021Z,99640.16
2023-10-26T05:37:23.511Z,99637.59
2023-10-26T05:39:49.931Z,99643.75
2023-10-26T05:42:16.461Z,99641.13
2023-10-26T05:44:43.187Z,99637.66
2023-10-26T05:47:10.214Z,99639.41
2023-10-26T05:49:36.914Z,99638.56
2023-10-26T05:52:04.600Z,99633.31
2023-10-26T05:54:31.156Z,99627.19
2023-10-26T05:56:57.703Z,99619.31
2023-10-26T05:59:24.237Z,99621.06
2023-10-26T06:01:50.807Z,99626.31
2023-10-26T06:04:17.377Z,99622.84
2023-10-26T06:06:43.820Z,99628.97
2023-10-26T06:09:11.768Z,99622.88
2023-10-26T06:11:38.901Z,99622.03
2023-10-26T06:14:05.668Z,99615.88
2023-10-26T06:16:32.323Z,99617.63
2023-10-26T06:18:58.812Z,99610.66
2023-10-26T06:21:25.395Z,99629.09
2023-10-26T06:23:51.877Z,99624.75
2023-10-26T06:26:20.678Z,99629.09
2023-10-26T06:28:49.847Z,99624.69
2023-10-26T06:31:16.526Z,99628.22
2023-10-26T06:33:44.178Z,99633.53
2023-10-26T06:36:14.113Z,99647.59
2023-10-26T06:38:41.814Z,99650.22
2023-10-26T06:41:10.354Z,99642.41
2023-10-26T06:43:38.271Z,99643.31
2023-10-26T06:46:05.421Z,99645.97
2023-10-26T06:48:32.295Z,99650.34
2023-10-26T06:51:03.356Z,99646.88
2023-10-26T06:53:30.624Z,99647.81
2023-10-26T06:55:58.731Z,99655.72
2023-10-26T06:58:25.459Z,99647.88
2023-10-26T07:00:53.168Z,99657.56
2023-10-26T07:03:21.367Z,99652.31
2023-10-26T07:05:49.365Z,99640.94
2023-10-26T07:08:16.737Z,99646.16
2023-10-26T07:10:43.332Z,99644.41
2023-10-26T07:13:09.784Z,99643.53
2023-10-26T07:15:37.711Z,99646.19
2023-10-26T07:18:05.565Z,99655.84
2023-10-26T07:20:32.200Z,99650.53
2023-10-26T07:22:58.645Z,99654.03
2023-10-26T07:25:25.180Z,99655.78
2023-10-26T07:27:51.913Z,99646.16
2023-10-26T07:30:18.567Z,99651.41
2023-10-26T07:32:45.192Z,99656.63
2023-10-26T07:35:11.980Z,99653.09
2023-10-26T07:37:41.294Z,99646.94
2023-10-26T07:40:28.539Z,99644.28
2023-10-26T07:42:55.000Z,99646.03
2023-10-26T07:45:21.433Z,99636.44
2023-10-26T07:47:48.001Z,99641.66
2023-10-26T07:50:18.290Z,99649.50
2023-10-26T07:52:44.822Z,99643.38
2023-10-26T07:55:11.394Z,99639.94
2023-10-26T07:57:38.204Z,99648.66
2023-10-26T08:00:06.466Z,99648.66
2023-10-26T08:02:34.538Z,99654.75
2023-10-26T08:05:02.382Z,99650.34
2023-10-26T08:07:28.991Z,99663.44
2023-10-26T08:09:55.504Z,99666.06
2023-10-26T08:12:21.972Z,99667.84
2023-10-26T08:16:05.266Z,99668.69
2023-10-26T08:17:38.972Z,99670.47
2023-10-26T08:20:08.588Z,99663.41
2023-10-26T08:22:36.247Z,99664.28
2023-10-26T08:25:04.719Z,99667.75
2023-10-26T08:27:32.512Z,99671.25
2023-10-26T08:29:59.136Z,99672.09
2023-10-26T08:32:25.750Z,99675.63
2023-10-26T08:34:52.302Z,99677.44
2023-10-26T08:37:19.099Z,99675.66
2023-10-26T08:39:45.682Z,99658.19
2023-10-26T08:42:13.827Z,99680.06
2023-10-26T08:44:43.605Z,99677.41
2023-10-26T08:47:13.354Z,99672.97
2023-10-26T08:49:50.230Z,99677.28
2023-10-26T08:52:23.486Z,99679.88
2023-10-26T08:54:51.483Z,99666.72
2023-10-26T08:57:18.012Z,99679.00
2023-10-26T08:59:44.553Z,99687.69
2023-10-26T09:02:11.242Z,99684.19
2023-10-26T09:04:37.908Z,99686.75
2023-10-26T09:07:04.555Z,99698.13
2023-10-26T09:09:44.103Z,99689.44
2023-10-26T09:12:11.001Z,99690.38
2023-10-26T09:14:37.451Z,99692.22
2023-10-26T09:17:05.099Z,99686.09
2023-10-26T09:19:39.536Z,99693.03
2023-10-26T09:22:08.643Z,99680.78
2023-10-26T09:24:35.087Z,99686.84
2023-10-26T09:27:01.735Z,99682.34
2023-10-26T09:29:41.360Z,99687.50
2023-10-26T09:32:09.638Z,99677.84
2023-10-26T09:34:44.652Z,99684.03
2023-10-26T09:37:11.852Z,99677.03
2023-10-26T09:39:40.059Z,99681.47
2023-10-26T09:42:12.155Z,99673.56
2023-10-26T09:44:39.851Z,99673.47
2023-10-26T09:47:07.778Z,99664.59
2023-10-26T09:49:34.685Z,99664.56
2023-10-26T09:52:01.272Z,99661.91
2023-10-26T09:54:32.469Z,99670.59
2023-10-26T09:57:22.447Z,99662.59
2023-10-26T09:59:53.077Z,99669.53
2023-10-26T10:02:20.812Z,99665.00
2023-10-26T10:04:48.106Z,99656.13
2023-10-26T10:07:19.003Z,99656.00
2023-10-26T10:10:03.571Z,99656.72
2023-10-26T10:12:30.054Z,99658.50
2023-10-26T10:15:15.425Z,99651.50
2023-10-26T10:17:45.543Z,99647.13
2023-10-26T10:20:15.287Z,99646.22
2023-10-26T10:22:41.661Z,99639.94
2023-10-26T10:25:12.432Z,99633.59
2023-10-26T10:27:40.265Z,99633.03
2023-10-26T10:30:10.385Z,99627.00
2023-10-26T10:32:46.244Z,99634.47
2023-10-26T10:35:15.243Z,99628.81
2023-10-26T10:38:20.301Z,99625.28
2023-10-26T10:40:56.347Z,99612.03
2023-10-26T10:43:44.591Z,99612.00
2023-10-26T10:46:22.729Z,99616.19
2023-10-26T10:48:59.205Z,99618.25
2023-10-26T10:51:33.250Z,99617.59
2023-10-26T10:54:06.141Z,99603.41
2023-10-26T10:56:42.801Z,99615.22
2023-10-26T10:59:35.681Z,99606.69
2023-10-26T11:02:13.765Z,99602.16
2023-10-26T11:05:05.265Z,99591.91
2023-10-26T11:07:32.401Z,99586.22
2023-10-26T11:10:00.497Z,99600.06
2023-10-26T11:12:27.953Z,99588.63
2023-10-26T11:14:55.134Z,99597.53
2023-10-26T11:17:23.740Z,99597.81
2023-10-26T11:19:51.288Z,99590.78
2023-10-26T11:22:19.321Z,99592.38
2023-10-26T11:24:46.641Z,99587.81
2023-10-26T11:27:15.307Z,99595.69
2023-10-26T11:29:42.650Z,99599.63
2023-10-26T11:32:19.649Z,99593.72
2023-10-26T11:35:14.548Z,99593.19
2023-10-26T11:37:55.233Z,99593.44
2023-10-26T11:40:30.712Z,99581.25
2023-10-26T11:42:59.477Z,99581.41
2023-10-26T11:45:27.830Z,99574.38
2023-10-26T11:47:56.762Z,99568.97
2023-10-26T11:50:24.419Z,99568.19
2023-10-26T11:52:52.689Z,99567.44
2023-10-26T11:55:20.657Z,99567.78
2023-10-26T11:57:47.423Z,99567.81
2023-10-26T12:00:15.468Z,99557.66
2023-10-26T12:02:42.569Z,99557.47
2023-10-26T12:05:13.235Z,99557.94
2023-10-26T12:07:39.693Z,99563.06
2023-10-26T12:10:06.528Z,99574.06
2023-10-26T12:12:33.227Z,99575.91
2023-10-26T12:14:59.660Z,99571.16
2023-10-26T12:17:26.124Z,99565.22
2023-10-26T12:19:52.678Z,99555.75
2023-10-26T12:22:20.196Z,99558.00
2023-10-26T12:24:46.807Z,99556.88
2023-10-26T12:27:17.364Z,99566.00
2023-10-26T12:29:44.784Z,99565.88
2023-10-26T12:32:11.945Z,99553.56
2023-10-26T12:34:38.723Z,99562.13
2023-10-26T12:37:05.936Z,99560.25
2023-10-26T12:39:33.674Z,99561.09
2023-10-26T12:42:01.196Z,99570.53
2023-10-26T12:44:28.063Z,99563.13
2023-10-26T12:46:55.321Z,99561.88
2023-10-26T12:49:24.578Z,99561.59
2023-10-26T12:51:51.992Z,99554.75
2023-10-26T12:54:19.190Z,99560.25
2023-10-26T12:56:45.937Z,99562.94
2023-10-26T12:59:12.839Z,99556.97
2023-10-26T13:01:40.294Z,99553.63
2023-10-26T13:04:06.986Z,99557.44
2023-10-26T13:06:34.651Z,99557.03
2023-10-26T13:09:02.498Z,99543.34
2023-10-26T13:11:29.002Z,99540.84
2023-10-26T13:13:55.644Z,99539.88
2023-10-26T13:16:23.377Z,99534.53
2023-10-26T13:18:50.758Z,99537.25
2023-10-26T13:21:18.690Z,99521.41
2023-10-26T13:23:45.762Z,99522.22
2023-10-26T13:26:12.255Z,99518.84
2023-10-26T13:28:38.736Z,99517.00
2023-10-26T13:31:07.178Z,99511.66
2023-10-26T13:33:34.712Z,99513.38
2023-10-26T13:36:01.224Z,99516.94
2023-10-26T13:38:27.679Z,99510.97
2023-10-26T13:40:55.105Z,99509.25
2023-10-26T13:43:21.576Z,99515.56
2023-10-26T13:45:48.133Z,99514.72
2023-10-26T13:48:16.108Z,99512.97
2023-10-26T13:50:44.479Z,99518.22
2023-10-26T13:53:12.673Z,99507.69
2023-10-26T13:55:39.125Z,99510.44
2023-10-26T13:58:08.706Z,99510.59
2023-10-26T14:00:38.690Z,99516.09
2023-10-26T14:03:05.768Z,99517.13
2023-10-26T14:05:32.441Z,99517.22
2023-10-26T14:07:59.600Z,99515.59
2023-10-26T14:10:26.630Z,99519.19
2023-10-26T14:12:53.455Z,99510.44
2023-10-26T14:15:20.565Z,99516.56
2023-10-26T14:17:47.259Z,99508.84
2023-10-26T14:20:13.749Z,99517.56
2023-10-26T14:22:40.199Z,99519.31
2023-10-26T14:25:07.176Z,99507.13
2023-10-26T14:27:35.170Z,99508.91
2023-10-26T14:30:01.684Z,99510.81
2023-10-26T14:32:28.255Z,99504.72
2023-10-26T14:34:54.733Z,99505.56
2023-10-26T14:37:21.182Z,99499.34
2023-10-26T14:39:47.678Z,99491.31
2023-10-26T14:42:16.258Z,99485.84
2023-10-26T14:44:47.734Z,99481.31
2023-10-26T14:47:14.273Z,99481.22
2023-10-26T14:49:40.769Z,99473.28
2023-10-26T14:52:07.420Z,99475.91
2023-10-26T14:54:34.041Z,99468.19
2023-10-26T14:57:01.261Z,99467.25
2023-10-26T14:59:27.710Z,99460.19
2023-10-26T15:01:54.168Z,99448.09
2023-10-26T15:04:20.658Z,99455.84
2023-10-26T15:06:49.378Z,99460.44
2023-10-26T15:10:20.040Z,99458.91
2023-10-26T15:12:02.551Z,99448.53
2023-10-26T15:14:29.034Z,99439.00
2023-10-26T15:16:55.880Z,99445.13
2023-10-26T15:19:22.860Z,99442.81
2023-10-26T15:21:49.428Z,99448.28
2023-10-26T15:24:16.009Z,99451.84
2023-10-26T15:26:42.455Z,99458.06
2023-10-26T15:29:08.968Z,99458.16
2023-10-26T15:31:35.463Z,99453.00
2023-10-26T15:34:01.908Z,99457.53
2023-10-26T15:36:28.461Z,99458.53
2023-10-26T15:38:55.167Z,99450.00
2023-10-26T15:41:21.577Z,99447.50
2023-10-26T15:43:48.035Z,99450.06
2023-10-26T15:46:14.831Z,99444.00
2023-10-26T15:49:32.847Z,99439.53
2023-10-26T15:51:27.889Z,99440.44
2023-10-26T15:53:54.317Z,99436.88
2023-10-26T15:56:20.811Z,99428.13
2023-10-26T15:58:54.581Z,99425.50
2023-10-26T16:01:21.807Z,99419.38
2023-10-26T16:03:48.338Z,99417.63
2023-10-26T16:06:15.403Z,99422.94
2023-10-26T16:08:42.691Z,99427.44
2023-10-26T16:11:13.785Z,99436.22
2023-10-26T16:13:43.811Z,99433.59
2023-10-26T16:16:10.360Z,99434.44
2023-10-26T16:18:36.902Z,99434.50
2023-10-26T16:21:03.694Z,99436.31
2023-10-26T16:23:30.372Z,99441.56
2023-10-26T16:25:56.911Z,99448.63
2023-10-26T16:28:23.304Z,99452.31
2023-10-26T16:30:56.661Z,99459.56
2023-10-26T16:33:23.438Z,99460.59
2023-10-26T16:35:49.888Z,99458.66
2023-10-26T16:38:16.387Z,99463.94
2023-10-26T16:40:43.826Z,99456.09
2023-10-26T16:43:10.416Z,99446.47
2023-10-26T16:45:37.695Z,99444.69
2023-10-26T16:48:05.168Z,99453.53
2023-10-26T16:50:31.741Z,99451.88
2023-10-26T16:53:01.093Z,99450.22
2023-10-26T16:55:28.183Z,99455.50
2023-10-26T16:57:54.967Z,99448.44
2023-10-26T17:00:21.486Z,99449.28
2023-10-26T17:02:48.487Z,99467.63
2023-10-26T17:05:14.996Z,99471.13
2023-10-26T17:07:43.209Z,99482.56
2023-10-26T17:10:10.482Z,99479.03
2023-10-26T17:12:42.306Z,99489.50
2023-10-26T17:15:10.836Z,99476.41
2023-10-26T17:17:37.289Z,99480.81
2023-10-26T17:20:04.524Z,99472.94
2023-10-26T17:22:30.986Z,99465.03
2023-10-26T17:24:57.520Z,99470.38
2023-10-26T17:27:30.310Z,99465.97
2023-10-26T17:29:56.825Z,99463.31
2023-10-26T17:32:23.259Z,99463.31
2023-10-26T17:34:49.990Z,99465.97
2023-10-26T17:37:16.697Z,99458.06
2023-10-26T17:39:43.584Z,99462.47
2023-10-26T17:42:10.232Z,99461.59
2023-10-26T17:44:36.730Z,99466.81
2023-10-26T17:47:03.479Z,99462.38
2023-10-26T17:49:29.981Z,99462.38
2023-10-26T17:51:56.434Z,99459.69
2023-10-26T17:54:22.931Z,99453.53
2023-10-26T17:56:49.407Z,99448.28
2023-10-26T17:59:15.932Z,99457.09
2023-10-26T18:01:42.468Z,99454.47
2023-10-26T18:04:09.733Z,99450.16
2023-10-26T18:06:36.331Z,99440.53
2023-10-26T18:09:02.841Z,99443.16
2023-10-26T18:11:29.329Z,99430.88
2023-10-26T18:13:55.793Z,99427.41
2023-10-26T18:16:22.371Z,99438.00
2023-10-26T18:18:48.911Z,99430.09
2023-10-26T18:21:15.471Z,99410.84
2023-10-26T18:23:42.146Z,99420.50
2023-10-26T18:26:10.968Z,99417.94
2023-10-26T18:28:41.217Z,99408.41
2023-10-26T18:31:17.029Z,99402.31
2023-10-26T18:33:49.747Z,99408.59
2023-10-26T18:36:18.732Z,99413.06
2023-10-26T18:38:45.993Z,99418.41
2023-10-26T18:41:20.217Z,99402.81
2023-10-26T18:43:48.715Z,99409.69
2023-10-26T18:46:15.411Z,99415.00
2023-10-26T18:48:42.003Z,99419.44
2023-10-26T18:51:09.560Z,99408.91
2023-10-26T18:53:37.168Z,99413.31
2023-10-26T18:56:07.119Z,99415.09
2023-10-26T18:58:34.670Z,99415.94
2023-10-26T19:01:01.111Z,99409.81
2023-10-26T19:03:27.734Z,99411.63
2023-10-26T19:05:54.147Z,99413.34
2023-10-26T19:08:20.766Z,99417.75
2023-10-26T19:10:48.015Z,99421.31
2023-10-26T19:13:15.078Z,99422.22
2023-10-26T19:15:41.919Z,99423.09
2023-10-26T19:18:08.534Z,99424.94
2023-10-26T19:20:47.668Z,99414.41
2023-10-26T19:23:14.224Z,99406.53
2023-10-26T19:25:41.412Z,99401.19
2023-10-26T19:28:07.921Z,99407.31
2023-10-26T19:30:34.429Z,99404.75
2023-10-26T19:33:01.324Z,99407.44
2023-10-26T19:35:29.198Z,99408.22
2023-10-26T19:37:56.498Z,99410.00
2023-10-26T19:40:23.632Z,99403.03
2023-10-26T19:42:50.484Z,99402.28
2023-10-26T19:45:17.174Z,99402.28
2023-10-26T19:47:44.284Z,99392.66
2023-10-26T19:50:11.923Z,99396.13
2023-10-26T19:52:39.069Z,99395.22
2023-10-26T19:55:09.908Z,99401.41
2023-10-26T19:57:36.826Z,99402.31
2023-10-26T20:00:07.792Z,99401.41
2023-10-26T20:02:34.351Z,99404.84
2023-10-26T20:05:00.964Z,99404.03
2023-10-26T20:07:27.552Z,99404.03
2023-10-26T20:09:54.047Z,99408.38
2023-10-26T20:12:20.878Z,99396.25
2023-10-26T20:14:47.455Z,99409.22
2023-10-26T20:17:14.014Z,99414.50
2023-10-26T20:19:40.558Z,99411.00
2023-10-26T20:22:08.443Z,99404.75
2023-10-26T20:24:34.921Z,99401.25
2023-10-26T20:27:04.702Z,99400.41
2023-10-26T20:29:31.174Z,99400.47
2023-10-26T20:31:58.968Z,99403.03
2023-10-26T20:34:25.910Z,99391.66
2023-10-26T20:36:52.663Z,99393.41
2023-10-26T20:39:19.205Z,99396.91
2023-10-26T20:41:45.814Z,99383.75
2023-10-26T20:44:15.338Z,99382.91
2023-10-26T20:46:41.825Z,99383.69
2023-10-26T20:49:12.178Z,99379.41
2023-10-26T20:51:40.730Z,99382.06
2023-10-26T20:54:07.651Z,99375.16
2023-10-26T20:56:34.084Z,99369.91
2023-10-26T20:59:00.649Z,99367.28
2023-10-26T21:01:27.366Z,99369.97
2023-10-26T21:03:53.878Z,99369.13
2023-10-26T21:06:20.568Z,99363.81
2023-10-26T21:08:49.840Z,99359.47
2023-10-26T21:11:17.807Z,99360.28
2023-10-26T21:13:44.695Z,99348.84
2023-10-26T21:16:11.345Z,99340.06
2023-10-26T21:18:37.930Z,99339.22
2023-10-26T21:21:08.470Z,99348.94
2023-10-26T21:23:36.436Z,99338.47
2023-10-26T21:26:07.215Z,99338.53
2023-10-26T21:28:35.227Z,99337.69
2023-10-26T21:31:02.218Z,99337.69
2023-10-26T21:33:31.786Z,99331.53
2023-10-26T21:35:58.322Z,99332.41
2023-10-26T21:38:24.928Z,99331.50
2023-10-26T21:40:51.433Z,99328.03
2023-10-26T21:43:18.010Z,99329.78
2023-10-26T21:45:47.278Z,99333.28
2023-10-26T21:48:14.753Z,99327.16
2023-10-26T21:50:41.868Z,99315.72
2023-10-26T21:53:09.184Z,99311.31
2023-10-26T21:55:38.383Z,99312.22
2023-10-26T21:58:05.073Z,99310.47
2023-10-26T22:00:32.242Z,99311.41
2023-10-26T22:02:58.906Z,99304.50
2023-10-26T22:05:26.909Z,99314.22
2023-10-26T22:07:53.677Z,99301.09
2023-10-26T22:10:20.666Z,99310.84
2023-10-26T22:12:47.286Z,99309.94
2023-10-26T22:15:13.878Z,99300.34
2023-10-26T22:17:41.846Z,99303.06
2023-10-26T22:20:09.620Z,99315.38
2023-10-26T22:22:37.682Z,99318.00
2023-10-26T22:25:04.775Z,99314.50
2023-10-26T22:27:31.882Z,99306.53
2023-10-26T22:29:58.386Z,99308.31
2023-10-26T22:32:25.283Z,99303.09
2023-10-26T22:34:52.338Z,99314.50
2023-10-26T22:37:19.666Z,99310.09
2023-10-26T22:39:46.469Z,99303.97
2023-10-26T22:42:13.151Z,99300.41
2023-10-26T22:44:42.649Z,99289.81
2023-10-26T22:47:09.114Z,99294.16
2023-10-26T22:49:35.633Z,99290.66
2023-10-26T22:52:02.152Z,99287.16
2023-10-26T22:54:28.561Z,99287.97
2023-10-26T22:56:55.008Z,99280.97
2023-10-26T22:59:21.853Z,99277.44
2023-10-26T23:01:48.802Z,99272.16
2023-10-26T23:04:15.671Z,99278.38
2023-10-26T23:06:42.378Z,99274.00
2023-10-26T23:09:10.136Z,99269.63
2023-10-26T23:11:36.664Z,99268.72
2023-10-26T23:14:03.161Z,99260.84
2023-10-26T23:16:29.738Z,99266.09
2023-10-26T23:18:56.966Z,99264.44
2023-10-26T23:21:23.556Z,99260.06
2023-10-26T23:23:49.991Z,99253.91
2023-10-26T23:26:16.636Z,99259.38
2023-10-26T23:28:43.122Z,99262.91
2023-10-26T23:31:10.843Z,99258.53
2023-10-26T23:33:37.944Z,99258.63
2023-10-26T23:36:10.283Z,99251.53
2023-10-26T23:38:37.140Z,99240.19
2023-10-26T23:41:04.056Z,99246.34
2023-10-26T23:43:30.510Z,99245.47
2023-10-26T23:45:58.860Z,99241.16
2023-10-26T23:48:25.722Z,99232.53
2023-10-26T23:50:52.425Z,99248.09
2023-10-26T23:53:19.832Z,99250.66
2023-10-26T23:55:47.052Z,99245.34
2023-10-26T23:58:13.868Z,99241.81
